createdAt,value
2018-10-05T00:00:46.952Z,984.71
2018-10-05T00:01:46.949Z,984.68
2018-10-05T00:02:48.730Z,984.69
2018-10-05T00:03:48.804Z,984.68
2018-10-05T00:04:47.080Z,984.68
2018-10-05T00:05:48.616Z,984.66
2018-10-05T00:06:46.932Z,984.68
2018-10-05T00:07:46.910Z,984.71
2018-10-05T00:08:47.293Z,984.70
2018-10-05T00:09:46.916Z,984.69
2018-10-05T00:10:46.903Z,984.70
2018-10-05T00:11:50.638Z,984.73
2018-10-05T00:12:46.898Z,984.71
2018-10-05T00:13:46.932Z,984.68
2018-10-05T00:14:46.889Z,984.69
2018-10-05T00:15:46.880Z,984.64
2018-10-05T00:16:49.763Z,984.63
2018-10-05T00:17:46.898Z,984.59
2018-10-05T00:18:46.887Z,984.58
2018-10-05T00:19:49.641Z,984.57
2018-10-05T00:20:47.191Z,984.58
2018-10-05T00:21:46.852Z,984.59
2018-10-05T00:22:46.859Z,984.57
2018-10-05T00:23:46.881Z,984.54
2018-10-05T00:24:46.833Z,984.51
2018-10-05T00:25:46.830Z,984.49
2018-10-05T00:26:46.831Z,984.46
2018-10-05T00:27:46.812Z,984.45
2018-10-05T00:28:46.842Z,984.42
2018-10-05T00:29:46.818Z,984.40
2018-10-05T00:30:46.814Z,984.40
2018-10-05T00:31:46.814Z,984.36
2018-10-05T00:32:46.817Z,984.35
2018-10-05T00:33:46.870Z,984.35
2018-10-05T00:34:46.803Z,984.31
2018-10-05T00:35:46.811Z,984.30
2018-10-05T00:36:46.774Z,984.34
2018-10-05T00:37:46.782Z,984.28
2018-10-05T00:38:46.822Z,984.22
2018-10-05T00:39:46.767Z,984.25
2018-10-05T00:40:46.770Z,984.25
2018-10-05T00:41:46.777Z,984.24
2018-10-05T00:42:46.781Z,984.24
2018-10-05T00:43:46.769Z,984.20
2018-10-05T00:44:46.758Z,984.21
2018-10-05T00:45:46.762Z,984.22
2018-10-05T00:46:46.745Z,984.21
2018-10-05T00:47:46.763Z,984.20
2018-10-05T00:48:46.740Z,984.20
2018-10-05T00:49:46.723Z,984.18
2018-10-05T00:50:46.735Z,984.14
2018-10-05T00:51:46.725Z,984.21
2018-10-05T00:52:46.750Z,984.17
2018-10-05T00:53:46.720Z,984.18
2018-10-05T00:54:46.759Z,984.15
2018-10-05T00:55:46.689Z,984.11
2018-10-05T00:56:46.706Z,984.10
2018-10-05T00:57:46.712Z,984.12
2018-10-05T00:58:46.748Z,984.16
2018-10-05T00:59:46.697Z,984.11
2018-10-05T01:00:46.697Z,984.13
2018-10-05T01:01:46.722Z,984.07
2018-10-05T01:02:46.685Z,984.06
2018-10-05T01:03:46.669Z,984.09
2018-10-05T01:04:46.670Z,984.08
2018-10-05T01:05:46.682Z,984.03
2018-10-05T01:06:46.646Z,984.03
2018-10-05T01:07:46.681Z,984.04
2018-10-05T01:08:46.647Z,984.02
2018-10-05T01:09:46.645Z,984.00
2018-10-05T01:10:46.656Z,983.95
2018-10-05T01:11:46.663Z,983.89
2018-10-05T01:12:46.621Z,983.91
2018-10-05T01:13:46.620Z,983.90
2018-10-05T01:14:46.604Z,983.95
2018-10-05T01:15:46.604Z,983.95
2018-10-05T01:16:46.616Z,983.95
2018-10-05T01:17:46.623Z,983.97
2018-10-05T01:18:46.585Z,983.98
2018-10-05T01:19:46.610Z,983.98
2018-10-05T01:20:46.574Z,984.00
2018-10-05T01:21:46.564Z,984.02
2018-10-05T01:22:46.586Z,983.97
2018-10-05T01:23:46.562Z,984.01
2018-10-05T01:24:46.624Z,983.98
2018-10-05T01:25:46.575Z,983.95
2018-10-05T01:26:46.588Z,984.00
2018-10-05T01:27:46.563Z,984.00
2018-10-05T01:28:46.545Z,983.99
2018-10-05T01:29:46.562Z,984.00
2018-10-05T01:30:46.537Z,984.03
2018-10-05T01:31:46.578Z,984.04
2018-10-05T01:32:46.521Z,983.99
2018-10-05T01:33:46.519Z,984.01
2018-10-05T01:34:46.521Z,984.02
2018-10-05T01:35:46.502Z,984.01
2018-10-05T01:36:46.522Z,983.99
2018-10-05T01:37:46.509Z,984.01
2018-10-05T01:38:46.564Z,983.99
2018-10-05T01:39:46.475Z,983.93
2018-10-05T01:40:46.487Z,983.93
2018-10-05T01:41:46.486Z,983.94
2018-10-05T01:42:46.507Z,983.93
2018-10-05T01:43:46.470Z,983.93
2018-10-05T01:44:46.467Z,983.91
2018-10-05T01:45:46.473Z,983.87
2018-10-05T01:46:46.447Z,983.91
2018-10-05T01:47:48.319Z,983.90
2018-10-05T01:48:46.452Z,983.88
2018-10-05T01:49:46.445Z,983.88
2018-10-05T01:50:46.436Z,983.85
2018-10-05T01:51:46.426Z,983.85
2018-10-05T01:52:46.451Z,983.82
2018-10-05T01:53:46.463Z,983.82
2018-10-05T01:54:46.439Z,983.81
2018-10-05T01:55:46.428Z,983.79
2018-10-05T01:56:46.416Z,983.75
2018-10-05T01:57:46.442Z,983.76
2018-10-05T01:58:46.418Z,983.76
2018-10-05T01:59:46.412Z,983.74
2018-10-05T02:00:46.405Z,983.70
2018-10-05T02:01:46.384Z,983.72
2018-10-05T02:02:46.408Z,983.67
2018-10-05T02:03:46.382Z,983.68
2018-10-05T02:04:46.371Z,983.65
2018-10-05T02:05:46.370Z,983.62
2018-10-05T02:06:46.376Z,983.61
2018-10-05T02:07:46.372Z,983.58
2018-10-05T02:08:46.340Z,983.54
2018-10-05T02:09:46.358Z,983.55
2018-10-05T02:10:46.349Z,983.48
2018-10-05T02:11:46.360Z,983.48
2018-10-05T02:12:46.336Z,983.43
2018-10-05T02:13:46.315Z,983.43
2018-10-05T02:14:46.331Z,983.43
2018-10-05T02:15:46.326Z,983.44
2018-10-05T02:16:46.346Z,983.38
2018-10-05T02:17:46.308Z,983.44
2018-10-05T02:18:46.302Z,983.41
2018-10-05T02:19:46.298Z,983.39
2018-10-05T02:20:46.328Z,983.39
2018-10-05T02:21:46.333Z,983.40
2018-10-05T02:22:46.293Z,983.40
2018-10-05T02:23:46.278Z,983.40
2018-10-05T02:24:46.267Z,983.38
2018-10-05T02:25:46.283Z,983.38
2018-10-05T02:26:46.308Z,983.36
2018-10-05T02:27:46.287Z,983.34
2018-10-05T02:28:46.268Z,983.32
2018-10-05T02:29:46.245Z,983.32
2018-10-05T02:30:46.295Z,983.34
2018-10-05T02:31:46.251Z,983.33
2018-10-05T02:32:46.268Z,983.33
2018-10-05T02:33:46.244Z,983.28
2018-10-05T02:34:46.243Z,983.30
2018-10-05T02:35:46.262Z,983.30
2018-10-05T02:36:46.263Z,983.25
2018-10-05T02:37:46.211Z,983.25
2018-10-05T02:38:46.211Z,983.24
2018-10-05T02:39:46.226Z,983.22
2018-10-05T02:40:46.192Z,983.24
2018-10-05T02:41:46.247Z,983.22
2018-10-05T02:42:46.194Z,983.19
2018-10-05T02:43:46.197Z,983.19
2018-10-05T02:44:46.179Z,983.21
2018-10-05T02:45:46.191Z,983.18
2018-10-05T02:46:46.222Z,983.17
2018-10-05T02:47:46.178Z,983.18
2018-10-05T02:48:46.156Z,983.18
2018-10-05T02:49:46.160Z,983.15
2018-10-05T02:50:46.156Z,983.19
2018-10-05T02:51:46.155Z,983.18
2018-10-05T02:52:46.143Z,983.20
2018-10-05T02:53:46.119Z,983.19
2018-10-05T02:54:46.115Z,983.17
2018-10-05T02:55:46.113Z,983.20
2018-10-05T02:56:46.159Z,983.18
2018-10-05T02:57:46.172Z,983.25
2018-10-05T02:58:46.123Z,983.26
2018-10-05T02:59:46.097Z,983.26
2018-10-05T03:00:46.083Z,983.30
2018-10-05T03:01:46.092Z,983.32
2018-10-05T03:02:46.105Z,983.33
2018-10-05T03:03:46.085Z,983.30
2018-10-05T03:04:46.068Z,983.24
2018-10-05T03:05:46.059Z,983.25
2018-10-05T03:06:46.113Z,983.22
2018-10-05T03:07:46.081Z,983.20
2018-10-05T03:08:46.089Z,983.17
2018-10-05T03:09:46.056Z,983.11
2018-10-05T03:10:46.060Z,983.12
2018-10-05T03:11:46.074Z,983.08
2018-10-05T03:12:46.075Z,983.06
2018-10-05T03:13:46.057Z,983.04
2018-10-05T03:14:46.029Z,983.05
2018-10-05T03:15:46.035Z,983.06
2018-10-05T03:16:46.047Z,983.01
2018-10-05T03:17:46.039Z,983.05
2018-10-05T03:18:46.028Z,983.02
2018-10-05T03:19:46.048Z,983.01
2018-10-05T03:20:46.004Z,983.01
2018-10-05T03:21:46.016Z,983.03
2018-10-05T03:22:46.026Z,983.02
2018-10-05T03:23:45.994Z,983.02
2018-10-05T03:24:45.977Z,983.05
2018-10-05T03:25:45.967Z,983.01
2018-10-05T03:26:45.979Z,983.04
2018-10-05T03:27:46.001Z,983.05
2018-10-05T03:28:45.962Z,983.05
2018-10-05T03:29:45.960Z,983.08
2018-10-05T03:30:45.960Z,983.05
2018-10-05T03:31:45.950Z,983.03
2018-10-05T03:32:45.969Z,983.01
2018-10-05T03:33:45.943Z,982.98
2018-10-05T03:34:45.920Z,982.94
2018-10-05T03:35:45.938Z,982.94
2018-10-05T03:36:45.931Z,982.91
2018-10-05T03:37:45.975Z,982.87
2018-10-05T03:38:45.914Z,982.84
2018-10-05T03:39:45.917Z,982.85
2018-10-05T03:40:45.907Z,982.85
2018-10-05T03:41:45.903Z,982.85
2018-10-05T03:42:45.910Z,982.86
2018-10-05T03:43:45.921Z,982.85
2018-10-05T03:44:45.902Z,982.89
2018-10-05T03:45:45.894Z,982.87
2018-10-05T03:46:45.887Z,982.85
2018-10-05T03:47:45.886Z,982.90
2018-10-05T03:48:45.863Z,982.83
2018-10-05T03:49:45.859Z,982.85
2018-10-05T03:50:45.868Z,982.83
2018-10-05T03:51:45.831Z,982.82
2018-10-05T03:52:45.865Z,982.82
2018-10-05T03:53:45.846Z,982.83
2018-10-05T03:54:45.840Z,982.86
2018-10-05T03:55:45.837Z,982.84
2018-10-05T03:56:45.828Z,982.88
2018-10-05T03:57:45.840Z,982.89
2018-10-05T03:58:45.817Z,982.87
2018-10-05T03:59:45.796Z,982.86
2018-10-05T04:00:45.807Z,982.90
2018-10-05T04:01:45.820Z,982.86
2018-10-05T04:02:45.819Z,982.91
2018-10-05T04:03:45.791Z,982.89
2018-10-05T04:04:45.777Z,982.91
2018-10-05T04:05:45.768Z,982.92
2018-10-05T04:06:45.772Z,982.91
2018-10-05T04:07:45.792Z,982.90
2018-10-05T04:08:45.767Z,982.89
2018-10-05T04:09:45.758Z,982.93
2018-10-05T04:10:45.755Z,982.87
2018-10-05T04:11:45.739Z,982.83
2018-10-05T04:12:45.753Z,982.86
2018-10-05T04:13:45.754Z,982.89
2018-10-05T04:14:45.735Z,982.88
2018-10-05T04:15:45.734Z,982.88
2018-10-05T04:16:45.705Z,982.84
2018-10-05T04:17:45.716Z,982.83
2018-10-05T04:18:45.859Z,982.84
2018-10-05T04:19:45.705Z,982.80
2018-10-05T04:20:45.696Z,982.79
2018-10-05T04:21:45.714Z,982.85
2018-10-05T04:22:45.687Z,982.84
2018-10-05T04:23:45.702Z,982.84
2018-10-05T04:24:45.672Z,982.84
2018-10-05T04:25:45.685Z,982.86
2018-10-05T04:26:45.678Z,982.85
2018-10-05T04:27:45.657Z,982.83
2018-10-05T04:28:45.676Z,982.82
2018-10-05T04:29:45.685Z,982.86
2018-10-05T04:30:45.641Z,982.86
2018-10-05T04:31:45.626Z,982.86
2018-10-05T04:32:45.628Z,982.81
2018-10-05T04:33:45.674Z,982.82
2018-10-05T04:34:45.622Z,982.85
2018-10-05T04:35:45.704Z,982.86
2018-10-05T04:36:45.671Z,982.83
2018-10-05T04:37:45.617Z,982.86
2018-10-05T04:38:45.654Z,982.87
2018-10-05T04:39:45.595Z,982.88
2018-10-05T04:40:45.584Z,982.87
2018-10-05T04:41:45.589Z,982.86
2018-10-05T04:42:45.566Z,982.88
2018-10-05T04:43:45.595Z,982.85
2018-10-05T04:44:45.574Z,982.90
2018-10-05T04:45:45.591Z,982.87
2018-10-05T04:46:46.132Z,982.83
2018-10-05T04:47:45.560Z,982.82
2018-10-05T04:48:45.580Z,982.83
2018-10-05T04:49:45.599Z,982.81
2018-10-05T04:50:45.540Z,982.81
2018-10-05T04:51:45.566Z,982.84
2018-10-05T04:52:45.527Z,982.79
2018-10-05T04:53:45.544Z,982.79
2018-10-05T04:54:45.504Z,982.75
2018-10-05T04:55:45.506Z,982.80
2018-10-05T04:56:45.548Z,982.80
2018-10-05T04:57:45.500Z,982.76
2018-10-05T04:58:45.517Z,982.82
2018-10-05T04:59:45.489Z,982.78
2018-10-05T05:00:45.505Z,982.79
2018-10-05T05:01:45.482Z,982.77
2018-10-05T05:02:45.468Z,982.76
2018-10-05T05:03:45.486Z,982.75
2018-10-05T05:04:45.457Z,982.82
2018-10-05T05:05:45.456Z,982.78
2018-10-05T05:06:45.460Z,982.82
2018-10-05T05:07:45.467Z,982.80
2018-10-05T05:08:45.463Z,982.77
2018-10-05T05:09:45.450Z,982.79
2018-10-05T05:10:45.432Z,982.80
2018-10-05T05:11:45.427Z,982.81
2018-10-05T05:12:45.413Z,982.81
2018-10-05T05:13:45.448Z,982.79
2018-10-05T05:14:45.422Z,982.77
2018-10-05T05:15:45.399Z,982.79
2018-10-05T05:16:45.393Z,982.81
2018-10-05T05:17:45.386Z,982.78
2018-10-05T05:18:45.400Z,982.82
2018-10-05T05:19:45.483Z,982.75
2018-10-05T05:20:45.379Z,982.80
2018-10-05T05:21:45.401Z,982.80
2018-10-05T05:22:45.359Z,982.82
2018-10-05T05:23:45.404Z,982.81
2018-10-05T05:24:45.341Z,982.83
2018-10-05T05:25:45.350Z,982.79
2018-10-05T05:26:45.363Z,982.77
2018-10-05T05:27:45.364Z,982.79
2018-10-05T05:28:45.367Z,982.78
2018-10-05T05:29:45.325Z,982.77
2018-10-05T05:30:45.336Z,982.78
2018-10-05T05:31:45.311Z,982.81
2018-10-05T05:32:45.353Z,982.74
2018-10-05T05:33:45.332Z,982.76
2018-10-05T05:34:45.328Z,982.76
2018-10-05T05:35:45.297Z,982.74
2018-10-05T05:36:45.284Z,982.76
2018-10-05T05:37:45.278Z,982.74
2018-10-05T05:38:45.308Z,982.77
2018-10-05T05:39:45.280Z,982.78
2018-10-05T05:40:45.276Z,982.82
2018-10-05T05:41:45.253Z,982.82
2018-10-05T05:42:45.291Z,982.82
2018-10-05T05:43:45.288Z,982.81
2018-10-05T05:44:45.277Z,982.80
2018-10-05T05:45:45.256Z,982.84
2018-10-05T05:46:45.430Z,982.81
2018-10-05T05:47:45.282Z,982.80
2018-10-05T05:48:45.285Z,982.80
2018-10-05T05:49:45.267Z,982.81
2018-10-05T05:50:45.213Z,982.81
2018-10-05T05:51:45.214Z,982.80
2018-10-05T05:52:45.206Z,982.84
2018-10-05T05:53:45.228Z,982.84
2018-10-05T05:54:45.197Z,982.79
2018-10-05T05:55:45.215Z,982.84
2018-10-05T05:56:45.186Z,982.83
2018-10-05T05:57:45.309Z,982.81
2018-10-05T05:58:45.252Z,982.79
2018-10-05T05:59:46.132Z,982.82
2018-10-05T06:00:45.291Z,982.74
2018-10-05T06:01:45.159Z,982.81
2018-10-05T06:02:45.157Z,982.83
2018-10-05T06:03:45.234Z,982.82
2018-10-05T06:04:45.136Z,982.81
2018-10-05T06:05:45.145Z,982.84
2018-10-05T06:06:45.154Z,982.91
2018-10-05T06:07:45.129Z,982.83
2018-10-05T06:08:45.162Z,982.85
2018-10-05T06:09:45.349Z,982.94
2018-10-05T06:10:46.634Z,982.96
2018-10-05T06:11:45.838Z,982.95
2018-10-05T06:12:45.819Z,982.99
2018-10-05T06:13:45.189Z,982.98
2018-10-05T06:14:45.101Z,983.01
2018-10-05T06:15:51.835Z,983.04
2018-10-05T06:16:45.093Z,983.07
2018-10-05T06:17:45.092Z,983.07
2018-10-05T06:18:45.107Z,983.11
2018-10-05T06:19:45.075Z,983.12
2018-10-05T06:20:45.058Z,983.14
2018-10-05T06:21:45.220Z,983.11
2018-10-05T06:22:45.058Z,983.11
2018-10-05T06:23:45.084Z,983.16
2018-10-05T06:24:45.058Z,983.12
2018-10-05T06:25:45.036Z,983.13
2018-10-05T06:26:45.046Z,983.09
2018-10-05T06:27:45.068Z,983.08
2018-10-05T06:28:45.075Z,983.08
2018-10-05T06:29:45.046Z,983.02
2018-10-05T06:30:45.060Z,983.04
2018-10-05T06:31:45.054Z,983.03
2018-10-05T06:32:45.024Z,983.09
2018-10-05T06:33:45.056Z,983.08
2018-10-05T06:34:45.045Z,983.14
2018-10-05T06:35:45.029Z,983.11
2018-10-05T06:36:45.019Z,983.15
2018-10-05T06:37:45.036Z,983.15
2018-10-05T06:38:45.032Z,983.11
2018-10-05T06:39:44.999Z,983.14
2018-10-05T06:40:45.008Z,983.19
2018-10-05T06:41:45.016Z,983.16
2018-10-05T06:42:45.031Z,983.13
2018-10-05T06:43:45.012Z,983.15
2018-10-05T06:44:45.000Z,983.18
2018-10-05T06:45:45.023Z,983.18
2018-10-05T06:46:45.013Z,983.20
2018-10-05T06:47:45.041Z,983.18
2018-10-05T06:48:45.011Z,983.18
2018-10-05T06:49:45.033Z,983.20
2018-10-05T06:50:44.997Z,983.21
2018-10-05T06:51:45.012Z,983.23
2018-10-05T06:52:45.031Z,983.24
2018-10-05T06:53:44.991Z,983.26
2018-10-05T06:54:45.000Z,983.27
2018-10-05T06:55:44.989Z,983.32
2018-10-05T06:56:45.022Z,983.28
2018-10-05T06:57:45.781Z,983.33
2018-10-05T06:58:45.019Z,983.35
2018-10-05T06:59:45.008Z,983.31
2018-10-05T07:00:45.016Z,983.28
2018-10-05T07:01:45.043Z,983.28
2018-10-05T07:02:45.058Z,983.30
2018-10-05T07:03:44.994Z,983.26
2018-10-05T07:04:45.045Z,983.30
2018-10-05T07:05:44.995Z,983.29
2018-10-05T07:06:45.018Z,983.35
2018-10-05T07:07:45.041Z,983.29
2018-10-05T07:08:45.043Z,983.27
2018-10-05T07:09:45.005Z,983.28
2018-10-05T07:10:45.003Z,983.31
2018-10-05T07:11:45.002Z,983.33
2018-10-05T07:12:45.000Z,983.30
2018-10-05T07:13:45.042Z,983.31
2018-10-05T07:14:45.011Z,983.29
2018-10-05T07:15:45.101Z,983.36
2018-10-05T07:16:44.999Z,983.32
2018-10-05T07:17:45.041Z,983.31
2018-10-05T07:18:45.057Z,983.31
2018-10-05T07:19:45.036Z,983.33
2018-10-05T07:20:45.040Z,983.34
2018-10-05T07:21:45.033Z,983.38
2018-10-05T07:22:45.055Z,983.38
2018-10-05T07:23:45.018Z,983.35
2018-10-05T07:24:45.033Z,983.36
2018-10-05T07:25:45.065Z,983.40
2018-10-05T07:26:45.050Z,983.38
2018-10-05T07:27:45.050Z,983.36
2018-10-05T07:28:45.108Z,983.43
2018-10-05T07:29:45.059Z,983.38
2018-10-05T07:30:45.057Z,983.37
2018-10-05T07:31:45.060Z,983.39
2018-10-05T07:32:45.113Z,983.35
2018-10-05T07:33:45.048Z,983.34
2018-10-05T07:34:45.055Z,983.35
2018-10-05T07:35:45.130Z,983.32
2018-10-05T07:36:45.066Z,983.38
2018-10-05T07:37:45.082Z,983.39
2018-10-05T07:38:45.129Z,983.46
2018-10-05T07:39:45.097Z,983.42
2018-10-05T07:40:45.089Z,983.43
2018-10-05T07:41:45.098Z,983.43
2018-10-05T07:42:45.090Z,983.45
2018-10-05T07:43:45.130Z,983.49
2018-10-05T07:44:45.103Z,983.46
2018-10-05T07:45:45.133Z,983.43
2018-10-05T07:46:45.120Z,983.46
2018-10-05T07:47:45.108Z,983.47
2018-10-05T07:48:45.137Z,983.48
2018-10-05T07:49:45.119Z,983.48
2018-10-05T07:50:45.127Z,983.47
2018-10-05T07:51:45.175Z,983.49
2018-10-05T07:52:45.133Z,983.46
2018-10-05T07:53:45.163Z,983.50
2018-10-05T07:54:45.147Z,983.51
2018-10-05T07:55:45.160Z,983.51
2018-10-05T07:56:45.161Z,983.50
2018-10-05T07:57:45.179Z,983.55
2018-10-05T07:58:45.194Z,983.58
2018-10-05T07:59:45.170Z,983.56
2018-10-05T08:00:45.181Z,983.56
2018-10-05T08:01:45.197Z,983.54
2018-10-05T08:02:45.200Z,983.56
2018-10-05T08:03:45.232Z,983.53
2018-10-05T08:04:45.214Z,983.57
2018-10-05T08:05:45.216Z,983.50
2018-10-05T08:06:45.226Z,983.47
2018-10-05T08:07:45.263Z,983.48
2018-10-05T08:08:45.240Z,983.46
2018-10-05T08:09:45.256Z,983.43
2018-10-05T08:10:45.283Z,983.42
2018-10-05T08:11:45.264Z,983.49
2018-10-05T08:12:45.275Z,983.46
2018-10-05T08:13:45.315Z,983.47
2018-10-05T08:14:45.289Z,983.54
2018-10-05T08:15:45.292Z,983.46
2018-10-05T08:16:45.321Z,983.45
2018-10-05T08:17:45.319Z,983.49
2018-10-05T08:18:45.345Z,983.52
2018-10-05T08:19:45.330Z,983.49
2018-10-05T08:20:45.345Z,983.49
2018-10-05T08:21:45.345Z,983.47
2018-10-05T08:22:45.353Z,983.50
2018-10-05T08:23:45.388Z,983.51
2018-10-05T08:24:45.373Z,983.52
2018-10-05T08:25:45.380Z,983.51
2018-10-05T08:26:45.392Z,983.47
2018-10-05T08:27:45.408Z,983.49
2018-10-05T08:28:45.435Z,983.51
2018-10-05T08:29:45.416Z,983.49
2018-10-05T08:30:45.428Z,983.44
2018-10-05T08:31:45.438Z,983.46
2018-10-05T08:32:45.452Z,983.49
2018-10-05T08:33:45.489Z,983.51
2018-10-05T08:34:45.470Z,983.49
2018-10-05T08:35:45.481Z,983.48
2018-10-05T08:36:45.490Z,983.48
2018-10-05T08:37:45.506Z,983.53
2018-10-05T08:38:45.542Z,983.50
2018-10-05T08:39:45.585Z,983.48
2018-10-05T08:40:45.537Z,983.45
2018-10-05T08:41:45.550Z,983.58
2018-10-05T08:42:45.560Z,983.55
2018-10-05T08:43:45.596Z,983.60
2018-10-05T08:44:45.578Z,983.61
2018-10-05T08:45:45.648Z,983.57
2018-10-05T08:46:45.602Z,983.55
2018-10-05T08:47:45.635Z,983.47
2018-10-05T08:48:45.657Z,983.47
2018-10-05T08:49:45.638Z,983.46
2018-10-05T08:50:45.651Z,983.43
2018-10-05T08:51:45.718Z,983.44
2018-10-05T08:52:45.678Z,983.39
2018-10-05T08:53:45.714Z,983.40
2018-10-05T08:54:45.706Z,983.40
2018-10-05T08:55:45.718Z,983.38
2018-10-05T08:56:45.725Z,983.39
2018-10-05T08:57:45.736Z,983.41
2018-10-05T08:58:45.777Z,983.39
2018-10-05T08:59:45.771Z,983.36
2018-10-05T09:00:45.777Z,983.37
2018-10-05T09:01:45.788Z,983.33
2018-10-05T09:02:45.808Z,983.34
2018-10-05T09:03:45.847Z,983.30
2018-10-05T09:04:45.828Z,983.26
2018-10-05T09:05:45.887Z,983.33
2018-10-05T09:06:45.854Z,983.31
2018-10-05T09:07:45.869Z,983.27
2018-10-05T09:08:45.915Z,983.24
2018-10-05T09:09:45.900Z,983.20
2018-10-05T09:10:45.918Z,983.16
2018-10-05T09:11:45.928Z,983.22
2018-10-05T09:12:45.947Z,983.20
2018-10-05T09:13:45.983Z,983.15
2018-10-05T09:14:45.971Z,983.12
2018-10-05T09:15:45.983Z,983.08
2018-10-05T09:16:46.000Z,983.08
2018-10-05T09:17:46.040Z,983.07
2018-10-05T09:18:46.058Z,983.06
2018-10-05T09:19:46.040Z,983.08
2018-10-05T09:20:46.055Z,983.05
2018-10-05T09:21:46.075Z,983.00
2018-10-05T09:22:46.091Z,982.99
2018-10-05T09:23:46.136Z,982.96
2018-10-05T09:24:46.115Z,982.92
2018-10-05T09:25:46.130Z,982.86
2018-10-05T09:26:46.165Z,982.89
2018-10-05T09:27:46.248Z,982.86
2018-10-05T09:28:46.218Z,982.88
2018-10-05T09:29:46.229Z,982.88
2018-10-05T09:30:48.286Z,982.85
2018-10-05T09:31:48.701Z,982.85
2018-10-05T09:32:46.256Z,982.82
2018-10-05T09:33:46.877Z,982.82
2018-10-05T09:34:46.285Z,982.83
2018-10-05T09:35:46.302Z,982.79
2018-10-05T09:36:47.855Z,982.80
2018-10-05T09:37:46.492Z,982.79
2018-10-05T09:38:47.826Z,982.75
2018-10-05T09:39:46.365Z,982.74
2018-10-05T09:40:46.385Z,982.74
2018-10-05T09:41:46.394Z,982.73
2018-10-05T09:42:46.414Z,982.72
2018-10-05T09:43:46.460Z,982.64
2018-10-05T09:44:46.467Z,982.61
2018-10-05T09:45:46.463Z,982.61
2018-10-05T09:46:46.480Z,982.61
2018-10-05T09:47:46.548Z,982.55
2018-10-05T09:48:46.574Z,982.45
2018-10-05T09:49:46.649Z,982.44
2018-10-05T09:50:46.549Z,982.47
2018-10-05T09:51:46.786Z,982.43
2018-10-05T09:52:47.343Z,982.48
2018-10-05T09:53:47.477Z,982.53
2018-10-05T09:54:47.315Z,982.48
2018-10-05T09:55:47.473Z,982.47
2018-10-05T09:56:47.787Z,982.48
2018-10-05T09:57:46.683Z,982.48
2018-10-05T09:58:46.754Z,982.50
2018-10-05T09:59:46.751Z,982.36
2018-10-05T10:00:46.741Z,982.45
2018-10-05T10:01:46.749Z,982.40
2018-10-05T10:02:47.320Z,982.42
2018-10-05T10:03:46.814Z,982.42
2018-10-05T10:04:46.804Z,982.39
2018-10-05T10:05:46.852Z,982.33
2018-10-05T10:06:46.845Z,982.36
2018-10-05T10:07:47.081Z,982.32
2018-10-05T10:08:46.901Z,982.31
2018-10-05T10:09:46.898Z,982.31
2018-10-05T10:10:46.903Z,982.32
2018-10-05T10:11:46.913Z,982.33
2018-10-05T10:12:46.948Z,982.32
2018-10-05T10:13:47.025Z,982.31
2018-10-05T10:14:46.996Z,982.25
2018-10-05T10:15:46.994Z,982.18
2018-10-05T10:16:47.045Z,982.17
2018-10-05T10:17:47.044Z,982.19
2018-10-05T10:18:47.114Z,982.17
2018-10-05T10:19:47.084Z,982.19
2018-10-05T10:20:47.107Z,982.17
2018-10-05T10:21:47.108Z,982.12
2018-10-05T10:22:47.202Z,982.11
2018-10-05T10:23:47.175Z,982.17
2018-10-05T10:24:47.177Z,982.09
2018-10-05T10:25:47.186Z,982.08
2018-10-05T10:26:47.196Z,982.07
2018-10-05T10:27:47.382Z,982.05
2018-10-05T10:28:47.384Z,982.05
2018-10-05T10:29:47.286Z,982.08
2018-10-05T10:30:47.277Z,981.97
2018-10-05T10:31:47.297Z,982.10
2018-10-05T10:32:47.309Z,982.04
2018-10-05T10:33:47.433Z,982.11
2018-10-05T10:34:47.408Z,982.05
2018-10-05T10:35:47.361Z,982.07
2018-10-05T10:36:47.448Z,982.00
2018-10-05T10:37:47.425Z,981.94
2018-10-05T10:38:47.460Z,981.87
2018-10-05T10:39:47.466Z,981.95
2018-10-05T10:40:47.473Z,981.94
2018-10-05T10:41:47.478Z,981.91
2018-10-05T10:42:47.501Z,981.91
2018-10-05T10:43:47.559Z,981.85
2018-10-05T10:44:47.542Z,981.89
2018-10-05T10:45:47.557Z,981.86
2018-10-05T10:46:47.578Z,981.80
2018-10-05T10:47:47.624Z,981.80
2018-10-05T10:48:47.639Z,981.84
2018-10-05T10:49:47.678Z,981.72
2018-10-05T10:50:47.654Z,981.74
2018-10-05T10:51:47.672Z,981.69
2018-10-05T10:52:47.682Z,981.69
2018-10-05T10:53:47.703Z,981.67
2018-10-05T10:54:47.769Z,981.63
2018-10-05T10:55:47.740Z,981.62
2018-10-05T10:56:47.746Z,981.55
2018-10-05T10:57:47.783Z,981.66
2018-10-05T10:58:47.790Z,981.61
2018-10-05T10:59:47.840Z,981.66
2018-10-05T11:00:47.900Z,981.60
2018-10-05T11:01:47.836Z,981.58
2018-10-05T11:02:47.858Z,981.60
2018-10-05T11:03:47.893Z,981.59
2018-10-05T11:04:47.982Z,981.58
2018-10-05T11:05:47.946Z,981.54
2018-10-05T11:06:47.933Z,981.55
2018-10-05T11:07:48.933Z,981.62
2018-10-05T11:08:47.976Z,981.47
2018-10-05T11:09:48.005Z,981.53
2018-10-05T11:10:48.002Z,981.56
2018-10-05T11:11:48.021Z,981.51
2018-10-05T11:12:48.037Z,981.44
2018-10-05T11:13:48.058Z,981.45
2018-10-05T11:14:48.119Z,981.46
2018-10-05T11:15:48.087Z,981.43
2018-10-05T11:16:48.114Z,981.43
2018-10-05T11:17:48.130Z,981.41
2018-10-05T11:18:48.161Z,981.41
2018-10-05T11:19:48.199Z,981.42
2018-10-05T11:20:48.186Z,981.39
2018-10-05T11:21:48.192Z,981.36
2018-10-05T11:22:48.872Z,981.35
2018-10-05T11:23:48.238Z,981.35
2018-10-05T11:24:48.275Z,981.35
2018-10-05T11:25:48.272Z,981.33
2018-10-05T11:26:48.288Z,981.28
2018-10-05T11:27:48.307Z,981.30
2018-10-05T11:28:48.323Z,981.19
2018-10-05T11:29:48.453Z,981.16
2018-10-05T11:30:48.371Z,981.14
2018-10-05T11:31:48.386Z,981.12
2018-10-05T11:32:48.397Z,981.09
2018-10-05T11:33:48.438Z,981.06
2018-10-05T11:34:48.463Z,981.04
2018-10-05T11:35:48.494Z,981.05
2018-10-05T11:36:48.466Z,981.04
2018-10-05T11:37:48.492Z,981.03
2018-10-05T11:38:48.490Z,981.00
2018-10-05T11:39:48.568Z,980.99
2018-10-05T11:40:48.609Z,980.99
2018-10-05T11:41:48.553Z,980.95
2018-10-05T11:42:48.643Z,980.84
2018-10-05T11:43:48.597Z,980.82
2018-10-05T11:44:48.657Z,980.72
2018-10-05T11:45:48.681Z,980.79
2018-10-05T11:46:48.677Z,980.79
2018-10-05T11:47:48.691Z,980.81
2018-10-05T11:48:48.660Z,980.80
2018-10-05T11:49:48.722Z,980.74
2018-10-05T11:50:48.752Z,980.72
2018-10-05T11:51:48.727Z,980.68
2018-10-05T11:52:48.748Z,980.67
2018-10-05T11:53:48.777Z,980.66
2018-10-05T11:54:48.828Z,980.65
2018-10-05T11:55:48.904Z,980.69
2018-10-05T11:56:48.819Z,980.71
2018-10-05T11:57:48.828Z,980.67
2018-10-05T11:58:48.828Z,980.65
2018-10-05T11:59:48.952Z,980.60
2018-10-05T12:00:48.866Z,980.63
2018-10-05T12:01:48.890Z,980.55
2018-10-05T12:02:48.979Z,980.57
2018-10-05T12:03:48.921Z,980.56
2018-10-05T12:04:48.956Z,980.51
2018-10-05T12:05:48.946Z,980.51
2018-10-05T12:06:48.971Z,980.51
2018-10-05T12:07:48.980Z,980.50
2018-10-05T12:08:49.010Z,980.49
2018-10-05T12:09:49.055Z,980.46
2018-10-05T12:10:49.068Z,980.43
2018-10-05T12:11:49.887Z,980.47
2018-10-05T12:12:49.095Z,980.44
2018-10-05T12:13:49.145Z,980.37
2018-10-05T12:14:49.172Z,980.26
2018-10-05T12:15:49.138Z,980.31
2018-10-05T12:16:49.166Z,980.32
2018-10-05T12:17:49.179Z,980.28
2018-10-05T12:18:49.187Z,980.25
2018-10-05T12:19:49.271Z,980.22
2018-10-05T12:20:49.224Z,980.28
2018-10-05T12:21:49.231Z,980.24
2018-10-05T12:22:49.246Z,980.27
2018-10-05T12:23:49.288Z,980.34
2018-10-05T12:24:49.293Z,980.29
2018-10-05T12:25:49.337Z,980.30
2018-10-05T12:26:49.317Z,980.29
2018-10-05T12:27:49.327Z,980.26
2018-10-05T12:28:49.350Z,980.33